createdAt,value
2019-01-11T00:02:09.364Z,24.07
2019-01-11T00:04:59.358Z,22.20
2019-01-11T00:07:49.557Z,22.87
2019-01-11T00:10:39.751Z,26.53
2019-01-11T00:13:29.249Z,24.73
2019-01-11T00:16:19.353Z,24.37
2019-01-11T00:19:09.115Z,29.27
2019-01-11T00:21:58.958Z,17.27
2019-01-11T00:24:48.564Z,17.10
2019-01-11T00:27:38.622Z,17.27
2019-01-11T00:30:28.632Z,14.80
2019-01-11T00:33:18.441Z,13.03
2019-01-11T00:36:08.219Z,12.17
2019-01-11T00:38:59.571Z,13.67
2019-01-11T00:41:49.589Z,6.47
2019-01-11T00:44:40.374Z,7.93
2019-01-11T00:47:30.161Z,5.77
2019-01-11T00:50:22.645Z,4.90
2019-01-11T00:53:13.152Z,6.73
2019-01-11T00:56:03.028Z,7.00
2019-01-11T00:58:52.870Z,12.90
2019-01-11T01:01:43.006Z,5.30
2019-01-11T01:04:33.163Z,6.33
2019-01-11T01:07:23.336Z,8.00
2019-01-11T01:10:13.470Z,10.70
2019-01-11T01:13:03.441Z,7.00
2019-01-11T01:15:53.445Z,8.43
2019-01-11T01:18:43.233Z,10.73
2019-01-11T01:21:32.828Z,7.33
2019-01-11T01:24:22.434Z,9.53
2019-01-11T01:27:12.271Z,7.47
2019-01-11T01:30:02.318Z,11.30
2019-01-11T01:32:52.826Z,15.07
2019-01-11T01:35:42.515Z,11.40
2019-01-11T01:38:32.673Z,16.80
2019-01-11T01:41:22.711Z,11.20
2019-01-11T01:44:12.970Z,11.90
2019-01-11T01:47:02.887Z,11.97
2019-01-11T01:49:52.690Z,12.00
2019-01-11T01:52:42.771Z,15.70
2019-01-11T01:55:32.426Z,11.33
2019-01-11T01:58:21.423Z,13.77
2019-01-11T02:01:11.424Z,15.53
2019-01-11T02:04:01.026Z,15.77
2019-01-11T02:06:51.307Z,13.20
2019-01-11T02:09:41.271Z,11.67
2019-01-11T02:12:31.101Z,18.33
2019-01-11T02:15:20.981Z,14.57
2019-01-11T02:18:10.990Z,18.70
2019-01-11T02:21:01.382Z,17.93
2019-01-11T02:23:51.252Z,17.37
2019-01-11T02:26:41.458Z,16.23
2019-01-11T02:29:31.363Z,19.07
2019-01-11T02:32:21.680Z,18.47
2019-01-11T02:35:11.864Z,17.20
2019-01-11T02:38:01.846Z,16.53
2019-01-11T02:40:52.002Z,15.07
2019-01-11T02:43:41.773Z,17.60
2019-01-11T02:46:31.863Z,15.80
2019-01-11T02:49:21.733Z,16.60
2019-01-11T02:52:11.903Z,20.43
2019-01-11T02:55:02.137Z,17.47
2019-01-11T02:57:52.222Z,18.13
2019-01-11T03:00:41.974Z,19.47
2019-01-11T03:03:32.978Z,19.67
2019-01-11T03:06:22.862Z,18.07
2019-01-11T03:09:13.112Z,17.60
2019-01-11T03:12:02.969Z,17.73
2019-01-11T03:14:53.027Z,18.90
2019-01-11T03:17:43.321Z,18.27
2019-01-11T03:20:32.961Z,22.43
2019-01-11T03:23:22.800Z,16.80
2019-01-11T03:26:12.956Z,18.47
2019-01-11T03:29:02.704Z,17.57
2019-01-11T03:31:52.539Z,17.10
2019-01-11T03:35:00.347Z,18.80
2019-01-11T03:37:51.749Z,21.23
2019-01-11T03:40:41.549Z,17.87
2019-01-11T03:43:31.393Z,27.40
2019-01-11T03:46:21.514Z,19.27
2019-01-11T03:49:11.576Z,21.70
2019-01-11T03:52:01.720Z,18.27
2019-01-11T03:54:52.109Z,25.93
2019-01-11T03:57:42.003Z,21.03
2019-01-11T04:00:31.728Z,24.50
2019-01-11T04:03:21.588Z,18.53
2019-01-11T04:06:11.396Z,25.20
2019-01-11T04:09:01.536Z,20.80
2019-01-11T04:11:52.681Z,24.87
2019-01-11T04:14:42.928Z,22.70
2019-01-11T04:17:32.892Z,27.50
2019-01-11T04:20:22.458Z,26.43
2019-01-11T04:23:12.167Z,24.50
2019-01-11T04:26:02.238Z,30.10
2019-01-11T04:28:52.341Z,24.00
2019-01-11T04:31:42.001Z,24.07
2019-01-11T04:34:31.813Z,25.13
2019-01-11T04:37:21.761Z,25.70
2019-01-11T04:40:13.043Z,32.80
2019-01-11T04:43:03.303Z,33.00
2019-01-11T04:45:53.538Z,33.20
2019-01-11T04:48:43.640Z,28.60
2019-01-11T04:51:33.182Z,24.70
2019-01-11T04:54:24.349Z,32.27
2019-01-11T04:57:14.490Z,37.17
2019-01-11T05:00:09.647Z,33.73
2019-01-11T05:02:59.731Z,29.47
2019-01-11T05:05:50.710Z,34.37
2019-01-11T05:08:40.528Z,36.17
2019-01-11T05:11:30.371Z,36.33
2019-01-11T05:14:20.752Z,35.30
2019-01-11T05:17:10.891Z,34.20
2019-01-11T05:20:00.670Z,35.60
2019-01-11T05:22:51.807Z,41.73
2019-01-11T05:25:41.657Z,43.80
2019-01-11T05:28:31.426Z,42.40
2019-01-11T05:31:21.618Z,36.60
2019-01-11T05:34:11.500Z,41.17
2019-01-11T05:37:01.460Z,35.87
2019-01-11T05:39:52.852Z,39.83
2019-01-11T05:42:43.164Z,45.37
2019-01-11T05:45:32.704Z,38.50
2019-01-11T05:48:22.774Z,40.50
2019-01-11T05:51:12.461Z,39.57
2019-01-11T05:54:01.983Z,36.33
2019-01-11T05:56:51.834Z,33.77
2019-01-11T05:59:41.464Z,37.73
2019-01-11T06:02:31.296Z,38.37
2019-01-11T06:05:21.215Z,42.83
2019-01-11T06:08:14.735Z,35.90
2019-01-11T06:11:04.955Z,37.70
2019-01-11T06:13:54.866Z,42.83
2019-01-11T06:16:44.878Z,37.50
2019-01-11T06:19:34.955Z,37.13
2019-01-11T06:22:25.319Z,41.93
2019-01-11T06:25:15.476Z,37.83
2019-01-11T06:28:05.742Z,40.20
2019-01-11T06:30:55.746Z,40.87
2019-01-11T06:33:46.712Z,46.10
2019-01-11T06:36:36.988Z,34.30
2019-01-11T06:39:26.734Z,37.23
2019-01-11T06:42:26.412Z,42.80
2019-01-11T06:45:16.253Z,36.53
2019-01-11T06:48:11.566Z,41.57
2019-01-11T06:51:01.183Z,36.80
2019-01-11T06:53:51.475Z,39.07
2019-01-11T06:56:42.456Z,38.03
2019-01-11T06:59:32.011Z,40.37
2019-01-11T07:02:22.379Z,39.63
2019-01-11T07:05:13.046Z,46.23
2019-01-11T07:08:02.503Z,39.40
2019-01-11T07:10:52.865Z,35.60
2019-01-11T07:13:42.994Z,45.33
2019-01-11T07:16:33.135Z,38.00
2019-01-11T07:19:22.971Z,36.87
2019-01-11T07:22:13.057Z,32.13
2019-01-11T07:25:03.350Z,36.73
2019-01-11T07:28:01.082Z,32.83
2019-01-11T07:31:06.912Z,32.07
2019-01-11T07:33:56.521Z,36.03
2019-01-11T07:36:49.168Z,41.50
2019-01-11T07:39:39.318Z,34.60
2019-01-11T07:42:29.296Z,34.50
2019-01-11T07:45:19.435Z,35.23
2019-01-11T07:48:09.607Z,34.53
2019-01-11T07:50:58.750Z,30.27
2019-01-11T07:53:48.701Z,37.47
2019-01-11T07:56:38.364Z,30.77
2019-01-11T07:59:28.055Z,35.87
2019-01-11T08:02:17.917Z,36.40
2019-01-11T08:05:08.783Z,32.43
2019-01-11T08:07:58.805Z,32.67
2019-01-11T08:10:48.631Z,31.10
2019-01-11T08:13:38.775Z,30.73
2019-01-11T08:16:28.939Z,35.60
2019-01-11T08:19:18.786Z,27.50
2019-01-11T08:22:10.139Z,35.83
2019-01-11T08:25:03.934Z,28.53
2019-01-11T08:27:53.644Z,33.53
2019-01-11T08:30:43.462Z,30.90
2019-01-11T08:33:34.262Z,28.47
2019-01-11T08:36:24.482Z,33.47
2019-01-11T08:39:14.417Z,23.43
2019-01-11T08:42:04.491Z,27.30
2019-01-11T08:44:54.865Z,29.90
2019-01-11T08:47:45.103Z,22.03
2019-01-11T08:50:35.007Z,28.20
2019-01-11T08:53:25.113Z,24.87
2019-01-11T08:56:15.750Z,23.23
2019-01-11T08:59:05.789Z,26.33
2019-01-11T09:01:56.237Z,28.30
2019-01-11T09:04:46.360Z,26.10
2019-01-11T09:07:36.552Z,25.70
2019-01-11T09:10:26.450Z,19.87
2019-01-11T09:13:16.148Z,23.00
2019-01-11T09:16:06.381Z,23.47
2019-01-11T09:18:58.587Z,24.17
2019-01-11T09:21:48.521Z,24.50
2019-01-11T09:24:38.523Z,25.27
2019-01-11T09:27:28.667Z,23.60
2019-01-11T09:30:18.987Z,24.73
2019-01-11T09:33:08.710Z,22.90
2019-01-11T09:35:58.527Z,21.27
2019-01-11T09:38:48.834Z,23.30
2019-01-11T09:41:38.767Z,19.67
2019-01-11T09:44:28.702Z,25.07
2019-01-11T09:47:18.896Z,19.47
2019-01-11T09:50:09.510Z,29.07
2019-01-11T09:52:59.127Z,19.57
2019-01-11T09:55:48.969Z,20.53
2019-01-11T09:58:39.008Z,18.73
2019-01-11T10:01:28.879Z,20.13
2019-01-11T10:04:23.771Z,18.63
2019-01-11T10:07:25.488Z,28.00
2019-01-11T10:10:16.730Z,23.53
2019-01-11T10:13:06.889Z,18.77
2019-01-11T10:15:57.181Z,18.40
2019-01-11T10:18:47.190Z,19.63
2019-01-11T10:21:37.177Z,29.60
2019-01-11T10:24:27.411Z,17.50
2019-01-11T10:27:17.044Z,15.87
2019-01-11T10:30:12.646Z,17.67
2019-01-11T10:33:02.434Z,15.30
2019-01-11T10:35:52.242Z,17.03
2019-01-11T10:38:42.201Z,15.10
2019-01-11T10:41:32.624Z,14.87
2019-01-11T10:44:22.722Z,17.87
2019-01-11T10:47:12.632Z,14.80
2019-01-11T10:50:02.825Z,16.23
2019-01-11T10:52:52.803Z,12.70
2019-01-11T10:55:43.058Z,15.13
2019-01-11T10:58:33.038Z,13.53
2019-01-11T11:01:22.452Z,17.50
2019-01-11T11:04:12.339Z,13.70
2019-01-11T11:07:02.495Z,14.77
2019-01-11T11:09:52.674Z,13.17
2019-01-11T11:12:42.786Z,15.53
2019-01-11T11:15:32.648Z,14.20
2019-01-11T11:18:22.648Z,14.77
2019-01-11T11:21:12.706Z,15.07
2019-01-11T11:24:02.621Z,12.97
2019-01-11T11:26:52.626Z,13.50
2019-01-11T11:29:42.984Z,13.50
2019-01-11T11:33:04.265Z,16.80
2019-01-11T11:35:54.358Z,16.50
2019-01-11T11:38:44.509Z,21.10
2019-01-11T11:41:34.470Z,15.47
2019-01-11T11:44:24.454Z,17.87
2019-01-11T11:47:14.995Z,16.27
2019-01-11T11:50:05.741Z,17.07
2019-01-11T11:52:55.697Z,22.00
2019-01-11T11:55:45.561Z,17.67
2019-01-11T11:58:35.125Z,18.93
2019-01-11T12:01:25.274Z,16.37
2019-01-11T12:04:15.429Z,16.13
2019-01-11T12:07:07.700Z,19.20
2019-01-11T12:09:57.736Z,18.27
2019-01-11T12:12:47.817Z,16.60
2019-01-11T12:15:37.560Z,16.87
2019-01-11T12:18:28.058Z,19.20
2019-01-11T12:21:18.163Z,18.10
2019-01-11T12:24:07.947Z,19.97
2019-01-11T12:26:57.772Z,18.83
2019-01-11T12:29:47.832Z,20.00
2019-01-11T12:32:37.961Z,14.93
2019-01-11T12:35:28.385Z,20.73
2019-01-11T12:38:18.597Z,19.97
2019-01-11T12:41:08.493Z,17.63
2019-01-11T12:43:58.681Z,25.57
2019-01-11T12:46:48.492Z,18.23
2019-01-11T12:49:39.019Z,20.43
2019-01-11T12:52:28.924Z,19.27
2019-01-11T12:55:18.862Z,21.03
2019-01-11T12:58:08.852Z,25.60
2019-01-11T13:00:59.368Z,25.00
2019-01-11T13:03:49.776Z,25.90
2019-01-11T13:06:39.140Z,19.30
2019-01-11T13:09:28.786Z,22.20
2019-01-11T13:12:18.928Z,23.93
2019-01-11T13:15:12.397Z,22.47
2019-01-11T13:18:01.982Z,23.13
2019-01-11T13:20:51.925Z,19.20
2019-01-11T13:23:42.754Z,23.90
2019-01-11T13:26:33.114Z,22.83
2019-01-11T13:29:23.049Z,24.20
2019-01-11T13:32:12.816Z,23.63
2019-01-11T13:35:02.520Z,28.67
2019-01-11T13:37:52.327Z,22.17
2019-01-11T13:40:42.449Z,21.60
2019-01-11T13:43:32.499Z,24.63
2019-01-11T13:46:22.745Z,26.87
2019-01-11T13:49:12.777Z,27.97
2019-01-11T13:52:07.117Z,22.83
2019-01-11T13:54:54.359Z,24.43
2019-01-11T13:57:44.438Z,25.70
2019-01-11T14:00:34.394Z,22.53
2019-01-11T14:03:24.296Z,28.20
2019-01-11T14:06:14.091Z,27.90
2019-01-11T14:09:05.721Z,30.83
2019-01-11T14:11:55.906Z,26.50
2019-01-11T14:14:46.002Z,28.60
2019-01-11T14:17:35.742Z,28.43
2019-01-11T14:20:26.777Z,29.43
2019-01-11T14:23:16.741Z,25.83
2019-01-11T14:26:06.606Z,21.23
2019-01-11T14:28:56.696Z,25.30
2019-01-11T14:31:46.633Z,26.47
2019-01-11T14:34:36.152Z,28.03
2019-01-11T14:37:32.151Z,40.27
2019-01-11T14:40:17.546Z,28.23
2019-01-11T14:43:07.414Z,22.20
2019-01-11T14:45:57.204Z,22.87
2019-01-11T14:48:47.675Z,27.40
2019-01-11T14:51:37.582Z,23.13
2019-01-11T14:54:27.747Z,26.47
2019-01-11T14:57:17.939Z,29.40
2019-01-11T15:00:13.757Z,22.67
2019-01-11T15:03:03.579Z,23.80
2019-01-11T15:05:53.329Z,26.93
2019-01-11T15:08:43.412Z,23.70
2019-01-11T15:11:33.640Z,27.97
2019-01-11T15:14:23.617Z,40.63
2019-01-11T15:17:13.702Z,25.17
2019-01-11T15:20:03.628Z,22.47
2019-01-11T15:22:53.938Z,25.83
2019-01-11T15:25:44.007Z,25.47
2019-01-11T15:28:33.970Z,24.53
2019-01-11T15:31:23.879Z,20.43
2019-01-11T15:34:13.887Z,23.50
2019-01-11T15:37:04.162Z,30.13
2019-01-11T15:39:54.164Z,27.60
2019-01-11T15:42:44.269Z,24.93
2019-01-11T15:45:34.504Z,23.07
2019-01-11T15:48:51.040Z,24.10
2019-01-11T15:51:41.178Z,20.60
2019-01-11T15:54:31.284Z,21.63
2019-01-11T15:57:41.926Z,22.50
2019-01-11T16:00:31.944Z,30.43
2019-01-11T16:03:21.485Z,19.97
2019-01-11T16:06:34.563Z,27.70
2019-01-11T16:09:59.425Z,21.60
2019-01-11T16:13:16.738Z,22.50
2019-01-11T16:16:51.410Z,22.67
2019-01-11T16:19:41.441Z,25.33
2019-01-11T16:22:31.898Z,26.50
2019-01-11T16:25:21.273Z,22.30
2019-01-11T16:28:11.572Z,31.20
2019-01-11T16:31:01.321Z,25.70
2019-01-11T16:33:51.483Z,24.73
2019-01-11T16:36:41.611Z,24.33
2019-01-11T16:39:31.431Z,28.97
2019-01-11T16:42:21.377Z,24.63
2019-01-11T16:45:13.193Z,22.20
2019-01-11T16:48:02.793Z,28.43
2019-01-11T16:50:52.490Z,25.07
2019-01-11T16:53:42.279Z,27.53
2019-01-11T16:56:32.371Z,28.60
2019-01-11T16:59:22.516Z,24.90
2019-01-11T17:02:13.029Z,22.33
2019-01-11T17:05:02.667Z,25.20
2019-01-11T17:07:52.443Z,22.70
2019-01-11T17:10:42.888Z,24.23
2019-01-11T17:13:40.392Z,20.30
2019-01-11T17:16:26.108Z,21.07
2019-01-11T17:19:16.690Z,20.60
2019-01-11T17:22:06.623Z,24.33
2019-01-11T17:24:56.705Z,19.83
2019-01-11T17:27:46.712Z,18.97
2019-01-11T17:30:37.843Z,21.57
2019-01-11T17:33:27.590Z,20.13
2019-01-11T17:36:17.331Z,22.33
2019-01-11T17:39:09.504Z,24.00
2019-01-11T17:41:59.039Z,22.00
2019-01-11T17:44:49.369Z,22.93
2019-01-11T17:47:39.649Z,21.60
2019-01-11T17:50:29.489Z,18.97
2019-01-11T17:53:19.411Z,23.93
2019-01-11T17:56:09.548Z,19.70
2019-01-11T17:58:59.155Z,23.47
2019-01-11T18:01:49.531Z,21.17
2019-01-11T18:04:39.561Z,23.67
2019-01-11T18:07:28.840Z,18.93
2019-01-11T18:10:19.085Z,16.77
2019-01-11T18:13:08.967Z,17.77
2019-01-11T18:15:58.712Z,22.50
2019-01-11T18:18:48.744Z,20.60
2019-01-11T18:21:38.535Z,21.50
2019-01-11T18:24:28.403Z,20.33
2019-01-11T18:27:18.626Z,20.83
2019-01-11T18:30:10.046Z,18.70
2019-01-11T18:33:00.085Z,19.93
2019-01-11T18:35:50.595Z,19.23
2019-01-11T18:38:40.100Z,20.27
2019-01-11T18:41:30.440Z,21.27
2019-01-11T18:44:20.492Z,16.97
2019-01-11T18:47:10.036Z,18.27
2019-01-11T18:49:59.799Z,20.37
2019-01-11T18:52:49.626Z,17.57
2019-01-11T18:55:39.733Z,15.83
2019-01-11T18:58:29.674Z,16.33
2019-01-11T19:01:19.317Z,18.03
2019-01-11T19:04:09.281Z,17.97
2019-01-11T19:06:59.388Z,17.50
2019-01-11T19:09:49.256Z,17.73
2019-01-11T19:12:39.454Z,18.23
2019-01-11T19:15:30.160Z,19.70
2019-01-11T19:18:20.005Z,17.77
2019-01-11T19:21:12.901Z,17.13
2019-01-11T19:24:02.948Z,23.17
2019-01-11T19:26:53.162Z,19.17
2019-01-11T19:29:43.081Z,21.37
2019-01-11T19:32:34.746Z,16.80
2019-01-11T19:35:24.876Z,18.67
2019-01-11T19:38:14.954Z,16.63
2019-01-11T19:41:04.856Z,16.10
2019-01-11T19:43:54.422Z,16.07
2019-01-11T19:46:45.624Z,16.80
2019-01-11T19:49:35.332Z,15.23
2019-01-11T19:52:25.588Z,17.77
2019-01-11T19:55:15.656Z,16.97
2019-01-11T19:58:05.718Z,18.10
2019-01-11T20:00:55.757Z,19.43
2019-01-11T20:03:45.873Z,17.97
2019-01-11T20:06:36.337Z,17.73
2019-01-11T20:09:26.065Z,18.93
2019-01-11T20:12:15.897Z,16.43
2019-01-11T20:15:07.113Z,14.40
2019-01-11T20:17:56.921Z,17.10
2019-01-11T20:20:46.331Z,18.97
2019-01-11T20:23:37.060Z,15.67
2019-01-11T20:26:27.438Z,17.97
2019-01-11T20:29:17.619Z,13.17
2019-01-11T20:32:07.275Z,14.10
2019-01-11T20:34:57.084Z,13.87
2019-01-11T20:37:47.855Z,12.00
2019-01-11T20:40:37.432Z,18.97
2019-01-11T20:43:27.343Z,12.57
2019-01-11T20:46:17.353Z,16.70
2019-01-11T20:49:07.409Z,14.47
2019-01-11T20:51:57.577Z,13.50
2019-01-11T20:54:47.293Z,16.37
2019-01-11T20:57:37.246Z,14.00
2019-01-11T21:00:33.266Z,12.17
2019-01-11T21:03:24.469Z,36.73
2019-01-11T21:06:14.266Z,19.87
2019-01-11T21:09:06.505Z,16.67
2019-01-11T21:11:56.345Z,14.90
2019-01-11T21:14:46.764Z,15.00
2019-01-11T21:17:36.460Z,18.20
2019-01-11T21:20:26.790Z,21.83
2019-01-11T21:23:17.184Z,18.50
2019-01-11T21:26:07.475Z,15.57
2019-01-11T21:28:57.554Z,15.10
2019-01-11T21:31:47.336Z,17.13
2019-01-11T21:34:37.299Z,16.83
2019-01-11T21:37:27.453Z,22.30
2019-01-11T21:40:19.544Z,19.33
2019-01-11T21:43:08.904Z,19.53
2019-01-11T21:46:03.234Z,15.03
2019-01-11T21:48:50.900Z,22.23
2019-01-11T21:51:41.115Z,16.70
2019-01-11T21:54:30.939Z,22.47
2019-01-11T21:57:20.648Z,18.57
2019-01-11T22:00:24.109Z,18.63
2019-01-11T22:03:18.615Z,17.47
2019-01-11T22:06:08.397Z,27.47
2019-01-11T22:08:57.879Z,22.43
2019-01-11T22:11:47.396Z,19.33
2019-01-11T22:14:37.116Z,18.00
2019-01-11T22:17:27.163Z,22.07
2019-01-11T22:20:18.049Z,20.13
2019-01-11T22:23:07.899Z,21.37
2019-01-11T22:25:57.732Z,25.33
2019-01-11T22:28:47.935Z,15.80
2019-01-11T22:31:37.997Z,14.30
2019-01-11T22:34:28.076Z,14.07
2019-01-11T22:37:17.992Z,15.70
2019-01-11T22:40:12.758Z,12.00
2019-01-11T22:43:02.775Z,13.10
2019-01-11T22:45:52.679Z,23.20
2019-01-11T22:48:42.899Z,20.83
2019-01-11T22:51:33.295Z,11.57
2019-01-11T22:54:23.267Z,21.27
2019-01-11T22:57:13.628Z,21.00
2019-01-11T23:00:05.180Z,12.00
2019-01-11T23:02:59.232Z,14.70
2019-01-11T23:05:49.673Z,22.93
2019-01-11T23:08:41.519Z,19.33
2019-01-11T23:12:03.476Z,19.07
2019-01-11T23:14:53.542Z,15.50
2019-01-11T23:18:04.614Z,21.00
2019-01-11T23:20:58.900Z,20.73
2019-01-11T23:23:48.320Z,20.80
2019-01-11T23:26:38.081Z,23.73
2019-01-11T23:29:28.765Z,15.30
2019-01-11T23:32:19.166Z,16.63
2019-01-11T23:35:09.417Z,17.20
2019-01-11T23:37:59.611Z,24.87
2019-01-11T23:40:49.413Z,22.30
2019-01-11T23:43:41.093Z,31.43
2019-01-11T23:46:31.738Z,15.00
2019-01-11T23:49:21.380Z,15.73
2019-01-11T23:52:11.499Z,21.43
2019-01-11T23:55:01.478Z,23.40
2019-01-11T23:57:51.304Z,18.37
